createdAt,value
2019-01-10T00:02:17.994Z,2.90
2019-01-10T00:04:48.431Z,2.90
2019-01-10T00:07:18.681Z,2.90
2019-01-10T00:09:49.558Z,2.90
2019-01-10T00:12:19.930Z,2.90
2019-01-10T00:14:49.883Z,2.90
2019-01-10T00:17:20.121Z,2.90
2019-01-10T00:19:50.706Z,2.90
2019-01-10T00:22:20.937Z,2.90
2019-01-10T00:24:50.913Z,2.80
2019-01-10T00:27:21.373Z,2.90
2019-01-10T00:29:52.092Z,2.90
2019-01-10T00:32:22.088Z,2.90
2019-01-10T00:34:52.591Z,2.90
2019-01-10T00:37:22.917Z,2.90
2019-01-10T00:39:53.938Z,2.90
2019-01-10T00:42:24.006Z,2.90
2019-01-10T00:44:54.051Z,2.90
2019-01-10T00:47:24.905Z,2.90
2019-01-10T00:49:55.366Z,2.90
2019-01-10T00:52:25.639Z,2.90
2019-01-10T00:54:56.175Z,2.90
2019-01-10T00:57:26.279Z,2.90
2019-01-10T00:59:57.074Z,2.90
2019-01-10T01:02:27.440Z,2.90
2019-01-10T01:04:57.700Z,2.90
2019-01-10T01:07:27.839Z,2.80
2019-01-10T01:09:57.818Z,2.80
2019-01-10T01:12:28.354Z,2.80
2019-01-10T01:14:58.722Z,2.90
2019-01-10T01:17:30.017Z,2.90
2019-01-10T01:20:00.437Z,2.80
2019-01-10T01:22:31.498Z,2.90
2019-01-10T01:25:03.866Z,2.90
2019-01-10T01:27:36.129Z,2.90
2019-01-10T01:30:09.696Z,2.90
2019-01-10T01:32:39.674Z,2.80
2019-01-10T01:35:10.245Z,2.80
2019-01-10T01:37:40.350Z,2.80
2019-01-10T01:40:11.839Z,2.90
2019-01-10T01:42:42.544Z,2.90
2019-01-10T01:45:13.818Z,2.90
2019-01-10T01:47:44.636Z,2.90
2019-01-10T01:50:17.984Z,2.90
2019-01-10T01:52:49.133Z,2.90
2019-01-10T01:55:19.447Z,3.00
2019-01-10T01:57:50.003Z,2.90
2019-01-10T02:00:22.584Z,2.90
2019-01-10T02:02:53.640Z,2.90
2019-01-10T02:05:23.677Z,2.90
2019-01-10T02:07:54.601Z,2.90
2019-01-10T02:10:26.973Z,3.00
2019-01-10T02:12:57.412Z,2.90
2019-01-10T02:15:27.377Z,2.90
2019-01-10T02:17:57.894Z,2.90
2019-01-10T02:20:28.269Z,2.90
2019-01-10T02:22:58.351Z,2.90
2019-01-10T02:25:28.403Z,2.80
2019-01-10T02:28:17.049Z,2.80
2019-01-10T02:30:47.264Z,2.90
2019-01-10T02:33:17.230Z,2.80
2019-01-10T02:35:47.455Z,2.90
2019-01-10T02:38:17.451Z,2.90
2019-01-10T02:40:47.620Z,3.00
2019-01-10T02:43:26.322Z,3.10
2019-01-10T02:45:49.807Z,3.10
2019-01-10T02:48:20.571Z,3.00
2019-01-10T02:50:50.838Z,3.10
2019-01-10T02:53:20.761Z,3.10
2019-01-10T02:55:50.909Z,3.10
2019-01-10T02:58:21.615Z,3.10
2019-01-10T03:00:51.678Z,3.10
2019-01-10T03:03:21.992Z,3.10
2019-01-10T03:05:52.299Z,3.10
2019-01-10T03:08:22.580Z,3.10
2019-01-10T03:10:53.123Z,3.00
2019-01-10T03:13:23.081Z,3.00
2019-01-10T03:15:53.569Z,3.10
2019-01-10T03:18:23.880Z,3.00
2019-01-10T03:20:54.200Z,3.00
2019-01-10T03:23:24.120Z,2.90
2019-01-10T03:25:55.030Z,2.90
2019-01-10T03:28:25.389Z,2.90
2019-01-10T03:30:55.647Z,2.90
2019-01-10T03:33:25.858Z,2.90
2019-01-10T03:35:57.227Z,2.90
2019-01-10T03:38:27.636Z,2.90
2019-01-10T03:40:57.791Z,2.80
2019-01-10T03:43:28.371Z,2.80
2019-01-10T03:45:58.473Z,2.80
2019-01-10T03:48:28.460Z,2.80
2019-01-10T03:50:58.703Z,2.80
2019-01-10T03:53:28.820Z,2.80
2019-01-10T03:55:59.226Z,2.70
2019-01-10T03:58:29.191Z,2.70
2019-01-10T04:01:02.361Z,2.70
2019-01-10T04:03:32.541Z,2.70
2019-01-10T04:06:04.027Z,2.70
2019-01-10T04:08:34.593Z,2.70
2019-01-10T04:11:05.544Z,2.70
2019-01-10T04:13:36.825Z,2.70
2019-01-10T04:16:07.045Z,2.60
2019-01-10T04:18:37.152Z,2.50
2019-01-10T04:21:16.700Z,2.50
2019-01-10T04:23:39.276Z,2.50
2019-01-10T04:26:09.317Z,2.40
2019-01-10T04:28:39.647Z,2.30
2019-01-10T04:31:10.202Z,2.20
2019-01-10T04:33:40.437Z,2.10
2019-01-10T04:36:11.289Z,2.00
2019-01-10T04:38:41.284Z,2.00
2019-01-10T04:41:11.394Z,2.00
2019-01-10T04:43:42.273Z,1.90
2019-01-10T04:46:12.603Z,1.90
2019-01-10T04:48:42.858Z,2.00
2019-01-10T04:51:13.231Z,2.10
2019-01-10T04:53:43.100Z,2.10
2019-01-10T04:56:13.468Z,2.10
2019-01-10T04:58:44.097Z,2.20
2019-01-10T05:01:14.163Z,2.20
2019-01-10T05:03:44.371Z,2.20
2019-01-10T05:06:14.580Z,2.20
2019-01-10T05:08:44.425Z,2.10
2019-01-10T05:11:14.622Z,2.10
2019-01-10T05:13:44.760Z,2.10
2019-01-10T05:16:14.682Z,2.20
2019-01-10T05:18:45.829Z,2.20
2019-01-10T05:21:16.477Z,2.20
2019-01-10T05:23:46.905Z,2.20
2019-01-10T05:26:16.892Z,2.20
2019-01-10T05:28:47.156Z,2.20
2019-01-10T05:31:17.458Z,2.20
2019-01-10T05:33:47.527Z,2.20
2019-01-10T05:36:17.886Z,2.10
2019-01-10T05:38:48.788Z,2.10
2019-01-10T05:41:18.784Z,2.20
2019-01-10T05:43:48.665Z,2.20
2019-01-10T05:46:18.963Z,2.20
2019-01-10T05:48:49.558Z,2.20
2019-01-10T05:51:19.869Z,2.30
2019-01-10T05:53:52.016Z,2.40
2019-01-10T05:56:23.056Z,2.40
2019-01-10T05:58:53.884Z,2.40
2019-01-10T06:01:24.435Z,2.50
2019-01-10T06:03:54.659Z,2.50
2019-01-10T06:06:25.394Z,2.50
2019-01-10T06:08:56.283Z,2.40
2019-01-10T06:11:26.813Z,2.50
2019-01-10T06:13:57.255Z,2.40
2019-01-10T06:16:28.367Z,2.40
2019-01-10T06:18:59.189Z,2.40
2019-01-10T06:21:29.505Z,2.40
2019-01-10T06:23:59.432Z,2.50
2019-01-10T06:26:29.624Z,2.50
2019-01-10T06:29:00.279Z,2.50
2019-01-10T06:31:30.520Z,2.50
2019-01-10T06:34:00.992Z,2.60
2019-01-10T06:36:30.947Z,2.60
2019-01-10T06:39:00.873Z,2.60
2019-01-10T06:41:31.185Z,2.60
2019-01-10T06:44:01.080Z,2.60
2019-01-10T06:46:31.686Z,2.60
2019-01-10T06:49:02.006Z,2.60
2019-01-10T06:51:32.194Z,2.60
2019-01-10T06:54:02.588Z,2.60
2019-01-10T06:56:32.545Z,2.60
2019-01-10T06:59:02.545Z,2.50
2019-01-10T07:01:35.144Z,2.50
2019-01-10T07:04:05.590Z,2.40
2019-01-10T07:06:37.766Z,2.50
2019-01-10T07:09:09.276Z,2.50
2019-01-10T07:11:39.749Z,2.50
2019-01-10T07:14:10.146Z,2.50
2019-01-10T07:16:40.698Z,2.50
2019-01-10T07:19:11.657Z,2.60
2019-01-10T07:22:07.413Z,2.60
2019-01-10T07:24:37.938Z,2.60
2019-01-10T07:27:08.284Z,2.50
2019-01-10T07:29:38.717Z,2.50
2019-01-10T07:32:09.717Z,2.50
2019-01-10T07:34:40.010Z,2.60
2019-01-10T07:37:12.929Z,2.60
2019-01-10T07:39:42.625Z,2.60
2019-01-10T07:42:13.104Z,2.50
2019-01-10T07:44:43.268Z,2.60
2019-01-10T07:47:13.518Z,2.50
2019-01-10T07:49:47.233Z,2.50
2019-01-10T07:52:19.400Z,2.50
2019-01-10T07:54:49.734Z,2.60
2019-01-10T07:57:20.161Z,2.60
2019-01-10T07:59:50.144Z,2.70
2019-01-10T08:02:20.484Z,2.80
2019-01-10T08:04:50.696Z,2.80
2019-01-10T08:07:21.237Z,3.00
2019-01-10T08:09:51.349Z,3.00
2019-01-10T08:12:22.028Z,2.90
2019-01-10T08:14:52.554Z,3.10
2019-01-10T08:17:23.017Z,3.20
2019-01-10T08:19:53.052Z,3.20
2019-01-10T08:22:28.060Z,3.30
2019-01-10T08:24:55.674Z,3.30
2019-01-10T08:27:26.420Z,3.30
2019-01-10T08:29:57.778Z,3.40
2019-01-10T08:32:27.891Z,3.40
2019-01-10T08:34:57.897Z,3.50
2019-01-10T08:37:28.120Z,3.40
2019-01-10T08:39:58.408Z,3.40
2019-01-10T08:42:28.524Z,3.50
2019-01-10T08:44:59.248Z,3.50
2019-01-10T08:47:29.260Z,3.50
2019-01-10T08:49:59.393Z,3.60
2019-01-10T08:52:29.665Z,3.60
2019-01-10T08:55:00.167Z,3.70
2019-01-10T08:57:30.384Z,3.70
2019-01-10T09:00:00.726Z,3.60
2019-01-10T09:02:31.424Z,3.50
2019-01-10T09:05:02.015Z,3.50
2019-01-10T09:07:33.231Z,3.60
2019-01-10T09:10:03.878Z,3.50
2019-01-10T09:12:34.111Z,3.50
2019-01-10T09:15:05.582Z,3.40
2019-01-10T09:17:35.531Z,3.40
2019-01-10T09:20:07.180Z,3.40
2019-01-10T09:22:37.146Z,3.30
2019-01-10T09:25:08.020Z,3.30
2019-01-10T09:27:38.029Z,3.40
2019-01-10T09:30:12.370Z,3.40
2019-01-10T09:32:42.297Z,3.40
2019-01-10T09:35:12.703Z,3.30
2019-01-10T09:37:43.148Z,3.30
2019-01-10T09:40:15.501Z,3.30
2019-01-10T09:42:45.848Z,3.20
2019-01-10T09:45:17.990Z,3.20
2019-01-10T09:47:48.223Z,3.20
2019-01-10T09:50:19.314Z,3.20
2019-01-10T09:52:50.489Z,3.10
2019-01-10T09:55:20.947Z,3.20
2019-01-10T09:57:51.177Z,3.30
2019-01-10T10:00:24.195Z,3.40
2019-01-10T10:02:54.527Z,3.40
2019-01-10T10:05:25.394Z,3.30
2019-01-10T10:07:55.435Z,3.30
2019-01-10T10:10:25.574Z,3.30
2019-01-10T10:12:55.700Z,3.40
2019-01-10T10:15:25.970Z,3.40
2019-01-10T10:17:56.492Z,3.40
2019-01-10T10:20:26.937Z,3.50
2019-01-10T10:22:57.267Z,3.50
2019-01-10T10:25:27.281Z,3.40
2019-01-10T10:27:57.155Z,3.40
2019-01-10T10:30:27.352Z,3.10
2019-01-10T10:32:57.998Z,3.00
2019-01-10T10:35:28.387Z,2.90
2019-01-10T10:37:58.395Z,2.80
2019-01-10T10:40:29.100Z,2.80
2019-01-10T10:42:59.494Z,2.90
2019-01-10T10:45:29.683Z,2.90
2019-01-10T10:47:59.789Z,3.00
2019-01-10T10:50:30.660Z,3.10
2019-01-10T10:53:02.456Z,3.10
2019-01-10T10:55:33.168Z,3.30
2019-01-10T10:58:03.532Z,3.40
2019-01-10T11:00:35.436Z,3.50
2019-01-10T11:03:05.802Z,3.60
2019-01-10T11:05:36.667Z,3.70
2019-01-10T11:08:06.827Z,4.00
2019-01-10T11:10:37.859Z,4.20
2019-01-10T11:13:08.090Z,4.50
2019-01-10T11:15:38.931Z,4.50
2019-01-10T11:18:09.424Z,4.70
2019-01-10T11:20:40.736Z,4.80
2019-01-10T11:23:11.528Z,4.80
2019-01-10T11:25:42.052Z,5.00
2019-01-10T11:28:12.320Z,5.10
2019-01-10T11:30:44.747Z,5.20
2019-01-10T11:33:15.147Z,5.20
2019-01-10T11:35:48.478Z,5.20
2019-01-10T11:38:19.737Z,5.10
2019-01-10T11:40:50.390Z,5.00
2019-01-10T11:43:22.382Z,4.90
2019-01-10T11:45:53.381Z,4.90
2019-01-10T11:48:23.643Z,4.80
2019-01-10T11:50:53.855Z,4.70
2019-01-10T11:53:24.151Z,4.80
2019-01-10T11:55:54.916Z,4.80
2019-01-10T11:58:25.374Z,4.90
2019-01-10T12:00:55.467Z,5.00
2019-01-10T12:03:25.692Z,4.90
2019-01-10T12:05:55.734Z,4.90
2019-01-10T12:08:25.799Z,5.00
2019-01-10T12:10:56.239Z,5.00
2019-01-10T12:13:26.688Z,5.00
2019-01-10T12:15:56.990Z,5.00
2019-01-10T12:18:27.045Z,4.80
2019-01-10T12:20:57.264Z,4.70
2019-01-10T12:23:27.685Z,4.80
2019-01-10T12:25:58.159Z,4.80
2019-01-10T12:28:28.958Z,4.60
2019-01-10T12:30:59.554Z,4.50
2019-01-10T12:33:29.808Z,4.30
2019-01-10T12:36:00.019Z,4.20
2019-01-10T12:38:30.171Z,4.00
2019-01-10T12:41:00.475Z,3.90
2019-01-10T12:43:30.726Z,3.70
2019-01-10T12:46:01.018Z,3.40
2019-01-10T12:48:31.393Z,3.40
2019-01-10T12:51:01.910Z,3.30
2019-01-10T12:53:31.887Z,3.30
2019-01-10T12:56:02.329Z,3.30
2019-01-10T12:58:32.551Z,3.20
2019-01-10T13:01:03.090Z,2.90
2019-01-10T13:03:34.009Z,2.90
2019-01-10T13:06:04.228Z,2.90
2019-01-10T13:08:34.363Z,2.90
2019-01-10T13:11:04.759Z,2.80
2019-01-10T13:13:35.304Z,2.80
2019-01-10T13:16:05.681Z,2.90
2019-01-10T13:18:35.827Z,2.80
2019-01-10T13:21:06.002Z,2.70
2019-01-10T13:23:36.143Z,2.70
2019-01-10T13:26:06.452Z,2.80
2019-01-10T13:28:36.409Z,2.90
2019-01-10T13:31:06.494Z,3.00
2019-01-10T13:33:36.694Z,3.10
2019-01-10T13:36:07.082Z,3.00
2019-01-10T13:38:37.565Z,2.90
2019-01-10T13:41:10.553Z,2.90
2019-01-10T13:43:40.421Z,3.10
2019-01-10T13:46:11.843Z,3.30
2019-01-10T13:48:41.963Z,3.10
2019-01-10T13:51:12.208Z,2.90
2019-01-10T13:53:42.537Z,2.90
2019-01-10T13:56:13.007Z,2.90
2019-01-10T13:58:43.263Z,2.90
2019-01-10T14:01:13.557Z,2.90
2019-01-10T14:03:44.047Z,2.90
2019-01-10T14:06:15.638Z,2.90
2019-01-10T14:08:45.688Z,2.80
2019-01-10T14:11:16.651Z,2.60
2019-01-10T14:13:46.946Z,2.50
2019-01-10T14:16:17.028Z,2.40
2019-01-10T14:18:47.549Z,2.40
2019-01-10T14:21:17.794Z,2.30
2019-01-10T14:23:48.288Z,2.30
2019-01-10T14:26:18.940Z,2.30
2019-01-10T14:28:49.367Z,2.20
2019-01-10T14:31:20.061Z,2.30
2019-01-10T14:33:50.094Z,2.40
2019-01-10T14:36:20.752Z,2.40
2019-01-10T14:38:51.426Z,2.40
2019-01-10T14:41:22.018Z,2.30
2019-01-10T14:43:52.381Z,2.20
2019-01-10T14:46:23.194Z,2.10
2019-01-10T14:48:53.567Z,2.10
2019-01-10T14:51:23.766Z,2.10
2019-01-10T14:53:54.133Z,2.00
2019-01-10T14:56:24.530Z,2.10
2019-01-10T14:58:55.582Z,2.20
2019-01-10T15:01:26.084Z,2.20
2019-01-10T15:03:56.446Z,2.30
2019-01-10T15:06:26.497Z,2.30
2019-01-10T15:08:56.586Z,2.20
2019-01-10T15:11:26.671Z,2.30
2019-01-10T15:13:57.359Z,2.20
2019-01-10T15:16:27.447Z,2.10
2019-01-10T15:18:58.196Z,2.00
2019-01-10T15:21:28.224Z,1.90
2019-01-10T15:23:58.858Z,1.90
2019-01-10T15:26:29.337Z,1.90
2019-01-10T15:28:59.791Z,1.80
2019-01-10T15:31:30.236Z,1.80
2019-01-10T15:34:00.803Z,1.80
2019-01-10T15:36:30.978Z,1.80
2019-01-10T15:39:01.194Z,1.80
2019-01-10T15:41:31.276Z,1.70
2019-01-10T15:44:01.851Z,1.70
2019-01-10T15:46:33.148Z,1.70
2019-01-10T15:49:03.381Z,1.70
2019-01-10T15:51:33.544Z,1.70
2019-01-10T15:54:03.731Z,1.70
2019-01-10T15:56:33.720Z,1.70
2019-01-10T15:59:04.188Z,1.70
2019-01-10T16:01:34.281Z,1.70
2019-01-10T16:04:07.504Z,1.70
2019-01-10T16:06:38.133Z,1.70
2019-01-10T16:09:09.577Z,1.60
2019-01-10T16:11:39.591Z,1.60
2019-01-10T16:14:09.724Z,1.60
2019-01-10T16:16:39.844Z,1.50
2019-01-10T16:19:10.575Z,1.40
2019-01-10T16:21:41.031Z,1.50
2019-01-10T16:24:11.746Z,1.40
2019-01-10T16:26:42.013Z,1.50
2019-01-10T16:29:13.211Z,1.30
2019-01-10T16:31:43.263Z,1.30
2019-01-10T16:34:13.334Z,1.20
2019-01-10T16:36:43.186Z,1.10
2019-01-10T16:39:13.983Z,1.10
2019-01-10T16:41:44.036Z,1.00
2019-01-10T16:44:14.227Z,1.00
2019-01-10T16:46:44.270Z,0.90
2019-01-10T16:49:15.049Z,0.80
2019-01-10T16:51:45.724Z,0.80
2019-01-10T16:54:16.736Z,0.80
2019-01-10T16:56:46.747Z,0.80
2019-01-10T16:59:17.390Z,0.80
2019-01-10T17:01:47.606Z,0.80
2019-01-10T17:04:17.787Z,0.70
2019-01-10T17:06:47.918Z,0.70
2019-01-10T17:09:19.926Z,0.70
2019-01-10T17:11:50.011Z,0.70
2019-01-10T17:14:20.537Z,0.60
2019-01-10T17:16:50.854Z,0.60
2019-01-10T17:19:20.893Z,0.50
2019-01-10T17:21:50.964Z,0.40
2019-01-10T17:24:21.172Z,0.40
2019-01-10T17:26:51.275Z,0.40
2019-01-10T17:29:21.236Z,0.30
2019-01-10T17:31:51.131Z,0.30
2019-01-10T17:34:21.130Z,0.30
2019-01-10T17:36:51.140Z,0.30
2019-01-10T17:39:21.141Z,0.20
2019-01-10T17:41:51.160Z,0.20
2019-01-10T17:44:22.099Z,0.20
2019-01-10T17:46:52.178Z,0.10
2019-01-10T17:49:22.869Z,0.10
2019-01-10T17:51:53.361Z,0.10
2019-01-10T17:54:24.168Z,0.10
2019-01-10T17:56:54.305Z,0.10
2019-01-10T17:59:24.568Z,0.10
2019-01-10T18:01:54.686Z,0.00
2019-01-10T18:04:25.115Z,-0.10
2019-01-10T18:06:55.143Z,-0.10
2019-01-10T18:09:25.517Z,-0.20
2019-01-10T18:11:55.540Z,-0.30
2019-01-10T18:14:25.989Z,-0.30
2019-01-10T18:16:56.018Z,-0.40
2019-01-10T18:19:32.865Z,-0.40
2019-01-10T18:22:03.266Z,-0.30
2019-01-10T18:24:33.645Z,-0.30
2019-01-10T18:27:03.747Z,-0.30
2019-01-10T18:29:34.538Z,-0.30
2019-01-10T18:32:04.561Z,-0.30
2019-01-10T18:34:35.037Z,-0.40
2019-01-10T18:37:06.362Z,-0.30
2019-01-10T18:39:38.659Z,-0.30
2019-01-10T18:42:08.580Z,-0.30
2019-01-10T18:44:38.587Z,-0.20
2019-01-10T18:47:08.619Z,-0.20
2019-01-10T18:49:38.501Z,-0.10
2019-01-10T18:52:08.674Z,-0.10
2019-01-10T18:54:38.956Z,-0.10
2019-01-10T18:57:08.986Z,-0.10
2019-01-10T18:59:38.948Z,-0.10
2019-01-10T19:02:10.589Z,-0.10
2019-01-10T19:04:40.800Z,-0.10
2019-01-10T19:07:11.936Z,-0.10
2019-01-10T19:09:42.138Z,-0.10
2019-01-10T19:12:12.144Z,-0.10
2019-01-10T19:14:42.242Z,-0.10
2019-01-10T19:17:12.170Z,-0.10
2019-01-10T19:19:42.133Z,-0.10
2019-01-10T19:22:12.393Z,-0.10
2019-01-10T19:24:42.225Z,-0.10
2019-01-10T19:27:12.269Z,-0.10
2019-01-10T19:29:42.384Z,0.00
2019-01-10T19:32:12.244Z,0.00
2019-01-10T19:34:42.328Z,0.00
2019-01-10T19:37:12.347Z,0.00
2019-01-10T19:39:42.405Z,0.00
2019-01-10T19:42:12.814Z,0.00
2019-01-10T19:44:43.536Z,0.00
2019-01-10T19:47:13.600Z,0.00
2019-01-10T19:49:43.665Z,0.00
2019-01-10T19:52:14.076Z,0.00
2019-01-10T19:54:44.501Z,0.00
2019-01-10T19:57:14.639Z,0.00
2019-01-10T19:59:44.681Z,0.00
2019-01-10T20:02:14.598Z,0.00
2019-01-10T20:04:44.668Z,0.00
2019-01-10T20:07:14.618Z,0.00
2019-01-10T20:09:44.588Z,0.00
2019-01-10T20:12:15.423Z,0.00
2019-01-10T20:14:45.380Z,0.00
2019-01-10T20:17:15.915Z,0.00
2019-01-10T20:20:08.060Z,0.00
2019-01-10T20:22:38.058Z,0.00
2019-01-10T20:25:08.765Z,0.10
2019-01-10T20:27:39.248Z,0.10
2019-01-10T20:30:11.459Z,0.10
2019-01-10T20:32:41.731Z,0.20
2019-01-10T20:35:12.701Z,0.20
2019-01-10T20:37:43.186Z,0.20
2019-01-10T20:40:13.691Z,0.20
2019-01-10T20:42:43.819Z,0.20
2019-01-10T20:45:13.966Z,0.20
2019-01-10T20:47:44.522Z,0.20
2019-01-10T20:50:15.348Z,0.10
2019-01-10T20:52:45.653Z,0.10
2019-01-10T20:55:16.277Z,0.10
2019-01-10T20:57:46.852Z,0.10
2019-01-10T21:00:19.455Z,0.00
2019-01-10T21:02:50.609Z,0.00
2019-01-10T21:05:20.676Z,0.00
2019-01-10T21:07:51.169Z,0.00
2019-01-10T21:10:22.053Z,-0.10
2019-01-10T21:12:52.760Z,-0.10
2019-01-10T21:15:28.601Z,-0.10
2019-01-10T21:17:59.353Z,-0.10
2019-01-10T21:20:29.657Z,-0.10
2019-01-10T21:23:00.963Z,-0.10
2019-01-10T21:25:30.988Z,-0.10
2019-01-10T21:28:01.439Z,-0.10
2019-01-10T21:30:32.397Z,-0.10
2019-01-10T21:33:02.713Z,0.00
2019-01-10T21:35:33.904Z,0.00
2019-01-10T21:38:04.786Z,0.00
2019-01-10T21:40:35.491Z,0.00
2019-01-10T21:43:05.608Z,0.00
2019-01-10T21:45:37.323Z,0.00
2019-01-10T21:48:07.507Z,0.00
2019-01-10T21:50:38.846Z,0.10
2019-01-10T21:53:09.396Z,0.00
2019-01-10T21:55:40.164Z,0.00
2019-01-10T21:58:10.654Z,0.00
2019-01-10T22:00:41.341Z,0.10
2019-01-10T22:03:11.669Z,0.10
2019-01-10T22:05:42.332Z,0.10
2019-01-10T22:08:12.654Z,0.10
2019-01-10T22:10:45.429Z,0.10
2019-01-10T22:13:15.382Z,0.10
2019-01-10T22:15:45.343Z,0.10
2019-01-10T22:18:15.713Z,0.10
2019-01-10T22:20:45.741Z,0.10
2019-01-10T22:23:15.783Z,0.20
2019-01-10T22:25:46.116Z,0.10
2019-01-10T22:28:16.039Z,0.10
2019-01-10T22:30:46.221Z,0.10
2019-01-10T22:33:16.343Z,0.00
2019-01-10T22:35:46.614Z,0.00
2019-01-10T22:38:16.649Z,-0.10
2019-01-10T22:40:46.602Z,-0.10
2019-01-10T22:43:16.634Z,-0.10
2019-01-10T22:45:46.769Z,-0.10
2019-01-10T22:48:16.791Z,-0.10
2019-01-10T22:50:47.266Z,-0.20
2019-01-10T22:53:17.278Z,-0.10
2019-01-10T22:55:47.218Z,-0.10
2019-01-10T22:58:17.322Z,-0.20
2019-01-10T23:01:24.847Z,-0.20
2019-01-10T23:03:55.110Z,-0.20
2019-01-10T23:06:25.999Z,-0.20
2019-01-10T23:08:56.144Z,-0.20
2019-01-10T23:11:27.031Z,-0.20
2019-01-10T23:14:01.437Z,-0.20
2019-01-10T23:16:32.887Z,-0.20
2019-01-10T23:19:03.344Z,-0.20
2019-01-10T23:21:38.558Z,-0.20
2019-01-10T23:24:17.274Z,-0.10
2019-01-10T23:26:56.910Z,-0.10
2019-01-10T23:29:34.551Z,-0.10
2019-01-10T23:32:15.188Z,0.00
2019-01-10T23:34:49.955Z,0.00
2019-01-10T23:37:24.629Z,0.00
2019-01-10T23:39:56.071Z,0.10
2019-01-10T23:42:26.878Z,0.10
2019-01-10T23:44:57.652Z,0.10
2019-01-10T23:47:27.805Z,0.10
2019-01-10T23:49:58.507Z,0.20
2019-01-10T23:52:29.801Z,0.20
2019-01-10T23:55:00.953Z,0.20
2019-01-10T23:57:31.157Z,0.30
